sensor_id;sensor_type;location;lat;lon;timestamp;P1;durP1;ratioP1;P2;durP2;ratioP2
16480;SDS011;44634;54.110;12.138;2022-12-24T00:00:21;11.00;;;7.50;;
16480;SDS011;44634;54.110;12.138;2022-12-24T00:02:49;13.17;;;7.10;;
16480;SDS011;44634;54.110;12.138;2022-12-24T00:05:17;17.17;;;8.30;;
16480;SDS011;44634;54.110;12.138;2022-12-24T00:07:45;14.73;;;8.73;;
16480;SDS011;44634;54.110;12.138;2022-12-24T00:10:13;18.77;;;9.07;;
16480;SDS011;44634;54.110;12.138;2022-12-24T00:12:41;16.33;;;9.13;;
16480;SDS011;44634;54.110;12.138;2022-12-24T00:15:10;12.63;;;7.90;;
16480;SDS011;44634;54.110;12.138;2022-12-24T00:17:38;12.60;;;8.13;;
16480;SDS011;44634;54.110;12.138;2022-12-24T00:20:06;14.47;;;8.20;;
16480;SDS011;44634;54.110;12.138;2022-12-24T00:22:35;11.37;;;7.50;;
16480;SDS011;44634;54.110;12.138;2022-12-24T00:25:03;12.17;;;7.50;;
16480;SDS011;44634;54.110;12.138;2022-12-24T00:27:31;12.03;;;7.77;;
16480;SDS011;44634;54.110;12.138;2022-12-24T00:29:59;12.67;;;8.07;;
16480;SDS011;44634;54.110;12.138;2022-12-24T00:32:28;12.83;;;7.60;;
16480;SDS011;44634;54.110;12.138;2022-12-24T00:34:56;14.00;;;7.33;;
16480;SDS011;44634;54.110;12.138;2022-12-24T00:37:24;14.20;;;7.87;;
16480;SDS011;44634;54.110;12.138;2022-12-24T00:39:52;14.80;;;6.43;;
16480;SDS011;44634;54.110;12.138;2022-12-24T00:42:19;34.73;;;6.93;;
16480;SDS011;44634;54.110;12.138;2022-12-24T00:44:47;36.23;;;7.27;;
16480;SDS011;44634;54.110;12.138;2022-12-24T00:47:15;11.13;;;6.93;;
16480;SDS011;44634;54.110;12.138;2022-12-24T00:49:44;12.43;;;7.40;;
16480;SDS011;44634;54.110;12.138;2022-12-24T00:52:12;10.23;;;7.03;;
16480;SDS011;44634;54.110;12.138;2022-12-24T00:54:40;13.10;;;7.07;;
16480;SDS011;44634;54.110;12.138;2022-12-24T00:57:07;10.43;;;6.83;;
16480;SDS011;44634;54.110;12.138;2022-12-24T00:59:35;10.30;;;7.07;;
16480;SDS011;44634;54.110;12.138;2022-12-24T01:02:03;10.07;;;6.70;;
16480;SDS011;44634;54.110;12.138;2022-12-24T01:04:31;10.97;;;7.33;;
16480;SDS011;44634;54.110;12.138;2022-12-24T01:07:17;13.47;;;7.43;;
16480;SDS011;44634;54.110;12.138;2022-12-24T01:09:45;9.93;;;6.70;;
16480;SDS011;44634;54.110;12.138;2022-12-24T01:12:13;14.03;;;7.60;;
16480;SDS011;44634;54.110;12.138;2022-12-24T01:14:40;12.40;;;7.73;;
16480;SDS011;44634;54.110;12.138;2022-12-24T01:17:08;43.40;;;8.03;;
16480;SDS011;44634;54.110;12.138;2022-12-24T01:19:36;22.57;;;7.20;;
16480;SDS011;44634;54.110;12.138;2022-12-24T01:22:04;11.30;;;7.27;;
16480;SDS011;44634;54.110;12.138;2022-12-24T01:24:33;11.23;;;6.83;;
16480;SDS011;44634;54.110;12.138;2022-12-24T01:27:01;10.57;;;6.80;;
16480;SDS011;44634;54.110;12.138;2022-12-24T01:29:29;12.20;;;6.73;;
16480;SDS011;44634;54.110;12.138;2022-12-24T01:31:56;16.40;;;8.13;;
16480;SDS011;44634;54.110;12.138;2022-12-24T01:34:24;11.80;;;7.07;;
16480;SDS011;44634;54.110;12.138;2022-12-24T01:36:52;15.87;;;8.40;;
16480;SDS011;44634;54.110;12.138;2022-12-24T01:39:20;10.33;;;6.90;;
16480;SDS011;44634;54.110;12.138;2022-12-24T01:41:49;14.17;;;7.27;;
16480;SDS011;44634;54.110;12.138;2022-12-24T01:44:35;12.57;;;7.80;;
16480;SDS011;44634;54.110;12.138;2022-12-24T01:47:07;14.67;;;7.23;;
16480;SDS011;44634;54.110;12.138;2022-12-24T01:49:41;13.00;;;7.00;;
16480;SDS011;44634;54.110;12.138;2022-12-24T01:52:12;10.63;;;6.70;;
16480;SDS011;44634;54.110;12.138;2022-12-24T01:54:44;11.43;;;7.00;;
16480;SDS011;44634;54.110;12.138;2022-12-24T01:57:19;15.67;;;7.93;;
16480;SDS011;44634;54.110;12.138;2022-12-24T01:59:52;10.97;;;6.70;;
16480;SDS011;44634;54.110;12.138;2022-12-24T02:02:23;13.10;;;7.27;;
16480;SDS011;44634;54.110;12.138;2022-12-24T02:04:53;10.43;;;7.23;;
16480;SDS011;44634;54.110;12.138;2022-12-24T02:07:25;19.73;;;7.60;;
16480;SDS011;44634;54.110;12.138;2022-12-24T02:09:55;15.90;;;7.10;;
16480;SDS011;44634;54.110;12.138;2022-12-24T02:12:25;18.13;;;7.37;;
16480;SDS011;44634;54.110;12.138;2022-12-24T02:14:55;13.23;;;8.37;;
16480;SDS011;44634;54.110;12.138;2022-12-24T02:17:24;14.07;;;8.87;;
16480;SDS011;44634;54.110;12.138;2022-12-24T02:23:02;13.33;;;7.83;;
16480;SDS011;44634;54.110;12.138;2022-12-24T02:25:44;15.80;;;7.83;;
16480;SDS011;44634;54.110;12.138;2022-12-24T02:28:29;15.00;;;8.07;;
16480;SDS011;44634;54.110;12.138;2022-12-24T02:31:09;12.00;;;7.63;;
16480;SDS011;44634;54.110;12.138;2022-12-24T02:33:43;13.63;;;7.43;;
16480;SDS011;44634;54.110;12.138;2022-12-24T02:36:17;10.67;;;6.90;;
16480;SDS011;44634;54.110;12.138;2022-12-24T02:38:50;14.77;;;7.70;;
16480;SDS011;44634;54.110;12.138;2022-12-24T02:41:24;14.60;;;8.40;;
16480;SDS011;44634;54.110;12.138;2022-12-24T02:44:16;14.40;;;7.60;;
16480;SDS011;44634;54.110;12.138;2022-12-24T02:46:47;14.33;;;7.20;;
16480;SDS011;44634;54.110;12.138;2022-12-24T02:49:17;13.60;;;7.53;;
16480;SDS011;44634;54.110;12.138;2022-12-24T02:51:45;14.07;;;7.63;;
16480;SDS011;44634;54.110;12.138;2022-12-24T02:54:12;13.37;;;7.87;;
16480;SDS011;44634;54.110;12.138;2022-12-24T02:56:44;11.43;;;6.97;;
16480;SDS011;44634;54.110;12.138;2022-12-24T02:59:33;14.83;;;7.33;;
16480;SDS011;44634;54.110;12.138;2022-12-24T03:02:17;11.57;;;7.87;;
16480;SDS011;44634;54.110;12.138;2022-12-24T03:04:55;11.83;;;7.73;;
16480;SDS011;44634;54.110;12.138;2022-12-24T03:07:30;12.00;;;7.70;;
16480;SDS011;44634;54.110;12.138;2022-12-24T03:10:12;10.03;;;6.97;;
16480;SDS011;44634;54.110;12.138;2022-12-24T03:12:47;13.50;;;7.47;;
16480;SDS011;44634;54.110;12.138;2022-12-24T03:15:18;15.70;;;7.57;;
16480;SDS011;44634;54.110;12.138;2022-12-24T03:17:49;14.50;;;7.80;;
16480;SDS011;44634;54.110;12.138;2022-12-24T03:20:21;12.67;;;8.13;;
16480;SDS011;44634;54.110;12.138;2022-12-24T03:22:52;12.30;;;7.97;;
16480;SDS011;44634;54.110;12.138;2022-12-24T03:25:21;13.30;;;7.83;;
16480;SDS011;44634;54.110;12.138;2022-12-24T03:27:51;13.63;;;7.60;;
16480;SDS011;44634;54.110;12.138;2022-12-24T03:30:22;11.23;;;7.03;;
16480;SDS011;44634;54.110;12.138;2022-12-24T03:32:51;13.20;;;7.97;;
16480;SDS011;44634;54.110;12.138;2022-12-24T03:35:19;18.17;;;8.07;;
16480;SDS011;44634;54.110;12.138;2022-12-24T03:37:47;11.30;;;6.40;;
16480;SDS011;44634;54.110;12.138;2022-12-24T03:40:15;7.90;;;5.17;;
16480;SDS011;44634;54.110;12.138;2022-12-24T03:42:43;11.87;;;6.40;;
16480;SDS011;44634;54.110;12.138;2022-12-24T03:45:11;10.97;;;6.13;;
16480;SDS011;44634;54.110;12.138;2022-12-24T03:47:38;10.87;;;5.37;;
16480;SDS011;44634;54.110;12.138;2022-12-24T03:50:08;10.03;;;5.50;;
16480;SDS011;44634;54.110;12.138;2022-12-24T03:52:36;11.63;;;5.67;;
16480;SDS011;44634;54.110;12.138;2022-12-24T03:55:04;8.80;;;5.50;;
16480;SDS011;44634;54.110;12.138;2022-12-24T03:57:32;7.20;;;4.80;;
16480;SDS011;44634;54.110;12.138;2022-12-24T04:00:00;11.53;;;4.90;;
16480;SDS011;44634;54.110;12.138;2022-12-24T04:02:28;10.40;;;5.13;;
16480;SDS011;44634;54.110;12.138;2022-12-24T04:04:57;9.80;;;4.70;;
16480;SDS011;44634;54.110;12.138;2022-12-24T04:07:26;7.80;;;5.37;;
16480;SDS011;44634;54.110;12.138;2022-12-24T04:09:54;9.30;;;5.23;;
16480;SDS011;44634;54.110;12.138;2022-12-24T04:12:21;9.37;;;5.27;;
16480;SDS011;44634;54.110;12.138;2022-12-24T04:14:49;10.90;;;5.67;;
16480;SDS011;44634;54.110;12.138;2022-12-24T04:17:17;7.57;;;5.63;;
16480;SDS011;44634;54.110;12.138;2022-12-24T04:19:45;10.27;;;6.47;;
16480;SDS011;44634;54.110;12.138;2022-12-24T04:22:12;13.47;;;7.13;;
16480;SDS011;44634;54.110;12.138;2022-12-24T04:24:42;13.33;;;7.20;;
16480;SDS011;44634;54.110;12.138;2022-12-24T04:27:09;10.17;;;6.53;;
16480;SDS011;44634;54.110;12.138;2022-12-24T04:29:39;16.90;;;6.33;;
16480;SDS011;44634;54.110;12.138;2022-12-24T04:32:07;10.40;;;6.43;;
16480;SDS011;44634;54.110;12.138;2022-12-24T04:34:36;9.97;;;5.20;;
16480;SDS011;44634;54.110;12.138;2022-12-24T04:37:04;12.70;;;6.63;;
16480;SDS011;44634;54.110;12.138;2022-12-24T04:39:32;11.40;;;4.90;;
16480;SDS011;44634;54.110;12.138;2022-12-24T04:42:01;10.60;;;5.77;;
16480;SDS011;44634;54.110;12.138;2022-12-24T04:44:29;11.67;;;6.07;;
16480;SDS011;44634;54.110;12.138;2022-12-24T04:46:56;9.17;;;5.97;;
16480;SDS011;44634;54.110;12.138;2022-12-24T04:49:24;13.50;;;6.13;;
16480;SDS011;44634;54.110;12.138;2022-12-24T04:51:52;14.40;;;5.20;;
16480;SDS011;44634;54.110;12.138;2022-12-24T04:54:20;9.07;;;5.23;;
16480;SDS011;44634;54.110;12.138;2022-12-24T04:56:47;10.73;;;5.17;;
16480;SDS011;44634;54.110;12.138;2022-12-24T04:59:17;14.90;;;5.17;;
16480;SDS011;44634;54.110;12.138;2022-12-24T05:01:44;12.97;;;5.37;;
16480;SDS011;44634;54.110;12.138;2022-12-24T05:04:12;9.23;;;6.00;;
16480;SDS011;44634;54.110;12.138;2022-12-24T05:06:40;10.60;;;5.73;;
16480;SDS011;44634;54.110;12.138;2022-12-24T05:09:08;8.20;;;5.70;;
16480;SDS011;44634;54.110;12.138;2022-12-24T05:11:36;12.80;;;6.23;;
16480;SDS011;44634;54.110;12.138;2022-12-24T05:14:03;8.67;;;6.17;;
16480;SDS011;44634;54.110;12.138;2022-12-24T05:16:33;12.83;;;5.93;;
16480;SDS011;44634;54.110;12.138;2022-12-24T05:19:00;14.67;;;5.40;;
16480;SDS011;44634;54.110;12.138;2022-12-24T05:21:28;18.07;;;7.00;;
16480;SDS011;44634;54.110;12.138;2022-12-24T05:23:56;8.90;;;6.00;;
16480;SDS011;44634;54.110;12.138;2022-12-24T05:26:42;8.80;;;6.00;;
16480;SDS011;44634;54.110;12.138;2022-12-24T05:29:12;11.83;;;5.27;;
16480;SDS011;44634;54.110;12.138;2022-12-24T05:31:41;8.00;;;5.40;;
16480;SDS011;44634;54.110;12.138;2022-12-24T05:34:11;8.80;;;5.43;;
16480;SDS011;44634;54.110;12.138;2022-12-24T05:36:40;11.43;;;5.70;;
16480;SDS011;44634;54.110;12.138;2022-12-24T05:39:08;8.03;;;5.10;;
16480;SDS011;44634;54.110;12.138;2022-12-24T05:41:41;6.77;;;4.93;;
16480;SDS011;44634;54.110;12.138;2022-12-24T05:44:09;9.97;;;5.37;;
16480;SDS011;44634;54.110;12.138;2022-12-24T05:46:37;10.20;;;5.63;;
16480;SDS011;44634;54.110;12.138;2022-12-24T05:49:06;11.30;;;5.67;;
16480;SDS011;44634;54.110;12.138;2022-12-24T05:51:34;12.33;;;5.37;;
16480;SDS011;44634;54.110;12.138;2022-12-24T05:54:03;13.53;;;6.03;;
16480;SDS011;44634;54.110;12.138;2022-12-24T05:56:31;10.67;;;5.87;;
16480;SDS011;44634;54.110;12.138;2022-12-24T05:58:59;12.13;;;5.83;;
16480;SDS011;44634;54.110;12.138;2022-12-24T06:01:27;9.23;;;5.73;;
16480;SDS011;44634;54.110;12.138;2022-12-24T06:03:55;10.73;;;5.60;;
16480;SDS011;44634;54.110;12.138;2022-12-24T06:06:25;6.97;;;5.30;;
16480;SDS011;44634;54.110;12.138;2022-12-24T06:08:54;11.10;;;5.70;;
16480;SDS011;44634;54.110;12.138;2022-12-24T06:11:23;10.70;;;5.20;;
16480;SDS011;44634;54.110;12.138;2022-12-24T06:13:52;7.93;;;5.20;;
16480;SDS011;44634;54.110;12.138;2022-12-24T06:16:21;9.20;;;5.53;;
16480;SDS011;44634;54.110;12.138;2022-12-24T06:18:50;9.13;;;5.23;;
16480;SDS011;44634;54.110;12.138;2022-12-24T06:21:18;10.90;;;5.00;;
16480;SDS011;44634;54.110;12.138;2022-12-24T06:23:48;7.27;;;4.87;;
16480;SDS011;44634;54.110;12.138;2022-12-24T06:26:16;11.50;;;5.17;;
16480;SDS011;44634;54.110;12.138;2022-12-24T06:28:47;10.83;;;5.17;;
16480;SDS011;44634;54.110;12.138;2022-12-24T06:31:16;9.83;;;4.60;;
16480;SDS011;44634;54.110;12.138;2022-12-24T06:33:46;5.17;;;4.43;;
16480;SDS011;44634;54.110;12.138;2022-12-24T06:36:15;8.27;;;4.37;;
16480;SDS011;44634;54.110;12.138;2022-12-24T06:38:44;11.30;;;4.47;;
16480;SDS011;44634;54.110;12.138;2022-12-24T06:41:14;10.27;;;5.10;;
16480;SDS011;44634;54.110;12.138;2022-12-24T06:43:43;10.70;;;5.33;;
16480;SDS011;44634;54.110;12.138;2022-12-24T06:46:12;8.70;;;5.93;;
16480;SDS011;44634;54.110;12.138;2022-12-24T06:48:41;8.80;;;4.77;;
16480;SDS011;44634;54.110;12.138;2022-12-24T06:51:10;9.10;;;5.20;;
16480;SDS011;44634;54.110;12.138;2022-12-24T06:53:38;7.67;;;4.73;;
16480;SDS011;44634;54.110;12.138;2022-12-24T06:56:06;8.93;;;4.53;;
16480;SDS011;44634;54.110;12.138;2022-12-24T06:58:37;8.33;;;5.07;;
16480;SDS011;44634;54.110;12.138;2022-12-24T07:01:06;9.40;;;4.57;;
16480;SDS011;44634;54.110;12.138;2022-12-24T07:03:36;12.23;;;5.80;;
16480;SDS011;44634;54.110;12.138;2022-12-24T07:06:04;20.37;;;11.47;;
16480;SDS011;44634;54.110;12.138;2022-12-24T07:08:32;10.90;;;6.57;;
16480;SDS011;44634;54.110;12.138;2022-12-24T07:11:01;7.40;;;4.80;;
16480;SDS011;44634;54.110;12.138;2022-12-24T07:13:30;8.37;;;4.97;;
16480;SDS011;44634;54.110;12.138;2022-12-24T07:16:01;7.23;;;4.47;;
16480;SDS011;44634;54.110;12.138;2022-12-24T07:18:30;7.97;;;5.00;;
16480;SDS011;44634;54.110;12.138;2022-12-24T07:20:59;12.43;;;5.37;;
16480;SDS011;44634;54.110;12.138;2022-12-24T07:23:27;7.57;;;4.20;;
16480;SDS011;44634;54.110;12.138;2022-12-24T07:25:58;7.60;;;4.93;;
16480;SDS011;44634;54.110;12.138;2022-12-24T07:28:26;6.20;;;4.53;;
16480;SDS011;44634;54.110;12.138;2022-12-24T07:30:54;7.13;;;4.33;;
16480;SDS011;44634;54.110;12.138;2022-12-24T07:33:23;9.17;;;4.83;;
16480;SDS011;44634;54.110;12.138;2022-12-24T07:35:56;7.03;;;5.00;;
16480;SDS011;44634;54.110;12.138;2022-12-24T07:38:26;8.07;;;4.27;;
16480;SDS011;44634;54.110;12.138;2022-12-24T07:40:55;8.60;;;4.63;;
16480;SDS011;44634;54.110;12.138;2022-12-24T07:43:23;5.73;;;4.23;;
16480;SDS011;44634;54.110;12.138;2022-12-24T07:45:53;9.97;;;4.90;;
16480;SDS011;44634;54.110;12.138;2022-12-24T07:48:22;10.83;;;4.87;;
16480;SDS011;44634;54.110;12.138;2022-12-24T07:50:51;7.20;;;4.67;;
16480;SDS011;44634;54.110;12.138;2022-12-24T07:53:19;9.07;;;5.13;;
16480;SDS011;44634;54.110;12.138;2022-12-24T07:55:47;8.00;;;5.13;;
16480;SDS011;44634;54.110;12.138;2022-12-24T07:58:15;13.33;;;5.93;;
16480;SDS011;44634;54.110;12.138;2022-12-24T08:00:44;10.57;;;5.20;;
16480;SDS011;44634;54.110;12.138;2022-12-24T08:03:14;10.93;;;5.57;;
16480;SDS011;44634;54.110;12.138;2022-12-24T08:05:44;10.13;;;5.80;;
16480;SDS011;44634;54.110;12.138;2022-12-24T08:08:13;23.90;;;12.93;;
16480;SDS011;44634;54.110;12.138;2022-12-24T08:10:41;14.53;;;4.60;;
16480;SDS011;44634;54.110;12.138;2022-12-24T08:13:10;13.13;;;7.07;;
16480;SDS011;44634;54.110;12.138;2022-12-24T08:15:39;10.63;;;6.10;;
16480;SDS011;44634;54.110;12.138;2022-12-24T08:18:06;9.20;;;4.87;;
16480;SDS011;44634;54.110;12.138;2022-12-24T08:20:36;10.10;;;5.03;;
16480;SDS011;44634;54.110;12.138;2022-12-24T08:23:06;12.03;;;5.80;;
16480;SDS011;44634;54.110;12.138;2022-12-24T08:25:34;13.90;;;8.43;;
16480;SDS011;44634;54.110;12.138;2022-12-24T08:28:03;10.07;;;5.57;;
16480;SDS011;44634;54.110;12.138;2022-12-24T08:30:31;10.17;;;4.43;;
16480;SDS011;44634;54.110;12.138;2022-12-24T08:32:59;29.77;;;16.13;;
16480;SDS011;44634;54.110;12.138;2022-12-24T08:35:27;14.57;;;8.97;;
16480;SDS011;44634;54.110;12.138;2022-12-24T08:37:55;18.63;;;8.63;;
16480;SDS011;44634;54.110;12.138;2022-12-24T08:40:24;9.23;;;4.83;;
16480;SDS011;44634;54.110;12.138;2022-12-24T08:42:53;7.33;;;4.17;;
16480;SDS011;44634;54.110;12.138;2022-12-24T08:45:21;10.53;;;4.70;;
16480;SDS011;44634;54.110;12.138;2022-12-24T08:47:48;9.43;;;4.67;;
16480;SDS011;44634;54.110;12.138;2022-12-24T08:50:16;10.87;;;4.50;;
16480;SDS011;44634;54.110;12.138;2022-12-24T08:52:44;9.60;;;5.00;;
16480;SDS011;44634;54.110;12.138;2022-12-24T08:55:12;7.53;;;4.90;;
16480;SDS011;44634;54.110;12.138;2022-12-24T08:57:41;8.63;;;4.60;;
16480;SDS011;44634;54.110;12.138;2022-12-24T09:00:10;5.30;;;4.60;;
16480;SDS011;44634;54.110;12.138;2022-12-24T09:02:39;7.77;;;4.60;;
16480;SDS011;44634;54.110;12.138;2022-12-24T09:05:07;5.00;;;3.83;;
16480;SDS011;44634;54.110;12.138;2022-12-24T09:07:35;8.63;;;4.03;;
16480;SDS011;44634;54.110;12.138;2022-12-24T09:10:03;4.13;;;3.73;;
16480;SDS011;44634;54.110;12.138;2022-12-24T09:12:32;5.53;;;4.30;;
16480;SDS011;44634;54.110;12.138;2022-12-24T09:15:02;4.73;;;4.23;;
16480;SDS011;44634;54.110;12.138;2022-12-24T09:17:33;12.80;;;6.37;;
16480;SDS011;44634;54.110;12.138;2022-12-24T09:20:01;12.30;;;4.90;;
16480;SDS011;44634;54.110;12.138;2022-12-24T09:22:29;9.03;;;4.90;;
16480;SDS011;44634;54.110;12.138;2022-12-24T09:24:57;8.53;;;4.50;;
16480;SDS011;44634;54.110;12.138;2022-12-24T09:27:25;4.83;;;4.00;;
16480;SDS011;44634;54.110;12.138;2022-12-24T09:29:52;9.70;;;5.10;;
16480;SDS011;44634;54.110;12.138;2022-12-24T09:32:21;3.90;;;3.43;;
16480;SDS011;44634;54.110;12.138;2022-12-24T09:34:50;9.40;;;4.40;;
16480;SDS011;44634;54.110;12.138;2022-12-24T09:37:17;6.17;;;4.30;;
16480;SDS011;44634;54.110;12.138;2022-12-24T09:39:45;7.10;;;4.40;;
16480;SDS011;44634;54.110;12.138;2022-12-24T09:42:17;8.13;;;5.17;;
16480;SDS011;44634;54.110;12.138;2022-12-24T09:45:05;6.23;;;4.20;;
16480;SDS011;44634;54.110;12.138;2022-12-24T09:47:45;9.33;;;3.73;;
16480;SDS011;44634;54.110;12.138;2022-12-24T09:50:29;5.43;;;3.80;;
16480;SDS011;44634;54.110;12.138;2022-12-24T09:53:03;4.53;;;3.57;;
16480;SDS011;44634;54.110;12.138;2022-12-24T09:55:40;4.97;;;3.80;;
16480;SDS011;44634;54.110;12.138;2022-12-24T09:58:13;4.83;;;3.73;;
16480;SDS011;44634;54.110;12.138;2022-12-24T10:00:46;6.50;;;3.70;;
16480;SDS011;44634;54.110;12.138;2022-12-24T10:03:17;4.17;;;3.60;;
16480;SDS011;44634;54.110;12.138;2022-12-24T10:05:48;5.90;;;4.03;;
16480;SDS011;44634;54.110;12.138;2022-12-24T10:08:25;8.27;;;4.07;;
16480;SDS011;44634;54.110;12.138;2022-12-24T10:10:58;8.50;;;3.93;;
16480;SDS011;44634;54.110;12.138;2022-12-24T10:13:37;6.70;;;4.40;;
16480;SDS011;44634;54.110;12.138;2022-12-24T10:16:14;8.60;;;4.60;;
16480;SDS011;44634;54.110;12.138;2022-12-24T10:18:51;5.57;;;4.13;;
16480;SDS011;44634;54.110;12.138;2022-12-24T10:21:27;5.77;;;4.00;;
16480;SDS011;44634;54.110;12.138;2022-12-24T10:24:06;6.97;;;4.33;;
16480;SDS011;44634;54.110;12.138;2022-12-24T10:26:42;4.60;;;4.07;;
16480;SDS011;44634;54.110;12.138;2022-12-24T10:29:19;7.43;;;4.57;;
16480;SDS011;44634;54.110;12.138;2022-12-24T10:31:52;6.63;;;4.23;;
16480;SDS011;44634;54.110;12.138;2022-12-24T10:34:25;6.93;;;4.40;;
16480;SDS011;44634;54.110;12.138;2022-12-24T10:36:57;5.07;;;4.40;;
16480;SDS011;44634;54.110;12.138;2022-12-24T10:39:25;6.63;;;3.90;;
16480;SDS011;44634;54.110;12.138;2022-12-24T10:41:54;5.30;;;3.93;;
16480;SDS011;44634;54.110;12.138;2022-12-24T10:44:25;6.60;;;4.50;;
16480;SDS011;44634;54.110;12.138;2022-12-24T10:46:54;8.10;;;4.80;;
16480;SDS011;44634;54.110;12.138;2022-12-24T10:49:27;6.90;;;4.67;;
16480;SDS011;44634;54.110;12.138;2022-12-24T10:52:02;7.67;;;4.00;;
16480;SDS011;44634;54.110;12.138;2022-12-24T10:54:32;7.40;;;4.23;;
16480;SDS011;44634;54.110;12.138;2022-12-24T10:57:05;5.53;;;4.30;;
16480;SDS011;44634;54.110;12.138;2022-12-24T10:59:50;4.43;;;4.03;;
16480;SDS011;44634;54.110;12.138;2022-12-24T11:02:27;6.93;;;4.50;;
16480;SDS011;44634;54.110;12.138;2022-12-24T11:04:59;9.50;;;4.30;;
16480;SDS011;44634;54.110;12.138;2022-12-24T11:07:29;13.43;;;5.40;;
16480;SDS011;44634;54.110;12.138;2022-12-24T11:09:58;9.77;;;5.00;;
16480;SDS011;44634;54.110;12.138;2022-12-24T11:12:28;6.53;;;4.33;;
16480;SDS011;44634;54.110;12.138;2022-12-24T11:14:58;9.20;;;5.20;;
16480;SDS011;44634;54.110;12.138;2022-12-24T11:17:28;6.83;;;4.57;;
16480;SDS011;44634;54.110;12.138;2022-12-24T11:19:58;7.20;;;4.43;;
16480;SDS011;44634;54.110;12.138;2022-12-24T11:22:29;4.67;;;3.70;;
16480;SDS011;44634;54.110;12.138;2022-12-24T11:25:00;7.23;;;3.80;;
16480;SDS011;44634;54.110;12.138;2022-12-24T11:27:32;6.27;;;3.80;;
16480;SDS011;44634;54.110;12.138;2022-12-24T11:30:12;6.97;;;4.10;;
16480;SDS011;44634;54.110;12.138;2022-12-24T11:32:47;4.93;;;4.07;;
16480;SDS011;44634;54.110;12.138;2022-12-24T11:35:18;7.10;;;4.50;;
16480;SDS011;44634;54.110;12.138;2022-12-24T11:37:48;6.80;;;4.33;;
16480;SDS011;44634;54.110;12.138;2022-12-24T11:40:36;5.10;;;4.03;;
16480;SDS011;44634;54.110;12.138;2022-12-24T11:43:11;5.13;;;4.10;;
16480;SDS011;44634;54.110;12.138;2022-12-24T11:45:46;6.53;;;4.00;;
16480;SDS011;44634;54.110;12.138;2022-12-24T11:48:26;6.63;;;4.40;;
16480;SDS011;44634;54.110;12.138;2022-12-24T11:50:58;7.07;;;4.93;;
16480;SDS011;44634;54.110;12.138;2022-12-24T11:53:29;8.67;;;4.60;;
16480;SDS011;44634;54.110;12.138;2022-12-24T11:56:04;6.60;;;3.57;;
16480;SDS011;44634;54.110;12.138;2022-12-24T11:58:40;7.47;;;4.63;;
16480;SDS011;44634;54.110;12.138;2022-12-24T12:01:13;8.70;;;4.27;;
16480;SDS011;44634;54.110;12.138;2022-12-24T12:03:47;5.70;;;3.80;;
16480;SDS011;44634;54.110;12.138;2022-12-24T12:06:22;5.03;;;3.60;;
16480;SDS011;44634;54.110;12.138;2022-12-24T12:08:55;8.03;;;4.83;;
16480;SDS011;44634;54.110;12.138;2022-12-24T12:11:26;14.20;;;8.30;;
16480;SDS011;44634;54.110;12.138;2022-12-24T12:13:55;9.93;;;5.80;;
16480;SDS011;44634;54.110;12.138;2022-12-24T12:16:27;10.57;;;4.90;;
16480;SDS011;44634;54.110;12.138;2022-12-24T12:19:18;4.93;;;4.37;;
16480;SDS011;44634;54.110;12.138;2022-12-24T12:21:53;8.27;;;5.03;;
16480;SDS011;44634;54.110;12.138;2022-12-24T12:24:21;7.33;;;4.67;;
16480;SDS011;44634;54.110;12.138;2022-12-24T12:27:01;9.90;;;5.43;;
16480;SDS011;44634;54.110;12.138;2022-12-24T12:29:35;9.00;;;5.13;;
16480;SDS011;44634;54.110;12.138;2022-12-24T12:32:10;6.37;;;4.90;;
16480;SDS011;44634;54.110;12.138;2022-12-24T12:34:51;9.63;;;5.17;;
16480;SDS011;44634;54.110;12.138;2022-12-24T12:37:30;8.47;;;4.60;;
16480;SDS011;44634;54.110;12.138;2022-12-24T12:40:02;6.73;;;4.93;;
16480;SDS011;44634;54.110;12.138;2022-12-24T12:42:31;7.40;;;4.47;;
16480;SDS011;44634;54.110;12.138;2022-12-24T12:45:21;4.97;;;4.37;;
16480;SDS011;44634;54.110;12.138;2022-12-24T12:50:56;7.47;;;4.53;;
16480;SDS011;44634;54.110;12.138;2022-12-24T12:53:34;5.70;;;4.70;;
16480;SDS011;44634;54.110;12.138;2022-12-24T12:56:13;6.10;;;4.30;;
16480;SDS011;44634;54.110;12.138;2022-12-24T12:58:58;5.17;;;4.20;;
16480;SDS011;44634;54.110;12.138;2022-12-24T13:01:32;5.30;;;4.47;;
16480;SDS011;44634;54.110;12.138;2022-12-24T13:04:26;8.70;;;4.23;;
16480;SDS011;44634;54.110;12.138;2022-12-24T13:10:28;8.40;;;4.80;;
16480;SDS011;44634;54.110;12.138;2022-12-24T13:13:18;7.53;;;4.73;;
16480;SDS011;44634;54.110;12.138;2022-12-24T13:16:05;5.93;;;4.20;;
16480;SDS011;44634;54.110;12.138;2022-12-24T13:18:58;6.77;;;4.60;;
16480;SDS011;44634;54.110;12.138;2022-12-24T13:21:34;7.13;;;5.03;;
16480;SDS011;44634;54.110;12.138;2022-12-24T13:24:06;7.73;;;5.07;;
16480;SDS011;44634;54.110;12.138;2022-12-24T13:26:45;6.83;;;5.17;;
16480;SDS011;44634;54.110;12.138;2022-12-24T13:29:30;12.20;;;6.30;;
16480;SDS011;44634;54.110;12.138;2022-12-24T13:44:26;8.23;;;5.57;;
16480;SDS011;44634;54.110;12.138;2022-12-24T13:47:17;9.67;;;5.83;;
16480;SDS011;44634;54.110;12.138;2022-12-24T13:49:57;8.67;;;5.23;;
16480;SDS011;44634;54.110;12.138;2022-12-24T13:52:47;7.63;;;5.77;;
16480;SDS011;44634;54.110;12.138;2022-12-24T13:55:17;10.07;;;5.90;;
16480;SDS011;44634;54.110;12.138;2022-12-24T13:57:51;12.83;;;5.33;;
16480;SDS011;44634;54.110;12.138;2022-12-24T14:00:36;7.33;;;5.13;;
16480;SDS011;44634;54.110;12.138;2022-12-24T14:03:20;11.97;;;5.33;;
16480;SDS011;44634;54.110;12.138;2022-12-24T14:05:54;8.07;;;4.53;;
16480;SDS011;44634;54.110;12.138;2022-12-24T14:08:26;7.77;;;5.00;;
16480;SDS011;44634;54.110;12.138;2022-12-24T14:11:05;7.67;;;5.17;;
16480;SDS011;44634;54.110;12.138;2022-12-24T14:13:51;7.67;;;5.40;;
16480;SDS011;44634;54.110;12.138;2022-12-24T14:16:23;11.63;;;5.50;;
16480;SDS011;44634;54.110;12.138;2022-12-24T14:18:57;5.30;;;4.70;;
16480;SDS011;44634;54.110;12.138;2022-12-24T14:21:28;10.23;;;5.90;;
16480;SDS011;44634;54.110;12.138;2022-12-24T14:24:01;10.93;;;6.33;;
16480;SDS011;44634;54.110;12.138;2022-12-24T14:26:32;8.80;;;5.30;;
16480;SDS011;44634;54.110;12.138;2022-12-24T14:29:03;7.60;;;5.90;;
16480;SDS011;44634;54.110;12.138;2022-12-24T14:31:35;9.77;;;6.33;;
16480;SDS011;44634;54.110;12.138;2022-12-24T14:34:07;10.40;;;6.23;;
16480;SDS011;44634;54.110;12.138;2022-12-24T14:36:38;9.03;;;6.50;;
16480;SDS011;44634;54.110;12.138;2022-12-24T14:39:15;7.13;;;4.70;;
16480;SDS011;44634;54.110;12.138;2022-12-24T14:41:50;7.30;;;4.73;;
16480;SDS011;44634;54.110;12.138;2022-12-24T14:44:27;4.60;;;4.20;;
16480;SDS011;44634;54.110;12.138;2022-12-24T14:47:07;6.63;;;4.27;;
16480;SDS011;44634;54.110;12.138;2022-12-24T14:49:51;7.30;;;4.57;;
16480;SDS011;44634;54.110;12.138;2022-12-24T14:52:28;8.00;;;4.13;;
16480;SDS011;44634;54.110;12.138;2022-12-24T14:55:29;7.17;;;4.93;;
16480;SDS011;44634;54.110;12.138;2022-12-24T15:00:49;10.70;;;4.40;;
16480;SDS011;44634;54.110;12.138;2022-12-24T15:03:20;8.03;;;4.73;;
16480;SDS011;44634;54.110;12.138;2022-12-24T15:05:50;9.43;;;5.83;;
16480;SDS011;44634;54.110;12.138;2022-12-24T15:08:22;14.40;;;7.30;;
16480;SDS011;44634;54.110;12.138;2022-12-24T15:10:56;7.70;;;5.07;;
16480;SDS011;44634;54.110;12.138;2022-12-24T15:13:30;8.20;;;5.00;;
16480;SDS011;44634;54.110;12.138;2022-12-24T15:16:02;8.00;;;5.17;;
16480;SDS011;44634;54.110;12.138;2022-12-24T15:18:36;8.43;;;4.83;;